Terminal Aerodrome Forecast
Issued by NWS

Home | Current Version | Previous Version | Text Only | Print | Product List | Glossary On
Versions: 1 2 3 4 5 6 7 8 9 10 11 12 13 14 15 16
000
FTUS41 KPBZ 082320
TAFFKL
TAF
KFKL 082320Z 0900/0924 27015G22KT P6SM -SN OVC025
     FM090500 27012G22KT 5SM -SN OVC015
     FM091600 27010G25KT 6SM -SHSN OVC020
      AMD NOT SKED=

USA.gov is the U.S. government's official web portal to all federal, state and local government web resources and services.